createdAt,value
2023-04-27T00:01:54.622Z,5.65
2023-04-27T00:04:23.264Z,5.61
2023-04-27T00:06:52.454Z,5.57
2023-04-27T00:09:20.922Z,5.52
2023-04-27T00:11:49.412Z,5.48
2023-04-27T00:14:17.845Z,5.48
2023-04-27T00:16:46.501Z,5.45
2023-04-27T00:19:15.747Z,5.42
2023-04-27T00:21:44.449Z,5.40
2023-04-27T00:24:12.936Z,5.39
2023-04-27T00:26:41.822Z,5.34
2023-04-27T00:29:10.199Z,5.28
2023-04-27T00:31:40.970Z,5.20
2023-04-27T00:34:09.714Z,5.20
2023-04-27T00:36:38.305Z,5.17
2023-04-27T00:39:06.791Z,5.16
2023-04-27T00:41:39.977Z,5.15
2023-04-27T00:44:08.348Z,5.15
2023-04-27T00:46:37.205Z,5.16
2023-04-27T00:49:05.942Z,5.17
2023-04-27T00:51:34.302Z,5.19
2023-04-27T00:54:02.891Z,5.21
2023-04-27T00:56:32.298Z,5.23
2023-04-27T00:59:01.221Z,5.27
2023-04-27T01:01:30.671Z,5.28
2023-04-27T01:03:59.869Z,5.29
2023-04-27T01:06:30.212Z,5.28
2023-04-27T01:08:58.621Z,5.27
2023-04-27T01:11:27.291Z,5.26
2023-04-27T01:13:57.106Z,5.23
2023-04-27T01:16:25.613Z,5.17
2023-04-27T01:18:54.326Z,5.13
2023-04-27T01:21:25.490Z,5.08
2023-04-27T01:23:54.483Z,5.04
2023-04-27T01:26:23.079Z,5.01
2023-04-27T01:28:51.451Z,4.97
2023-04-27T01:31:19.763Z,4.93
2023-04-27T01:33:48.723Z,4.90
2023-04-27T01:36:17.513Z,4.90
2023-04-27T01:38:46.201Z,4.89
2023-04-27T01:41:14.792Z,4.84
2023-04-27T01:43:44.096Z,4.84
2023-04-27T01:46:14.381Z,4.84
2023-04-27T01:48:42.808Z,4.81
2023-04-27T01:51:12.737Z,4.78
2023-04-27T01:53:42.293Z,4.75
2023-04-27T01:56:11.105Z,4.73
2023-04-27T01:58:39.572Z,4.73
2023-04-27T02:01:08.171Z,4.71
2023-04-27T02:03:36.901Z,4.67
2023-04-27T02:06:07.685Z,4.68
2023-04-27T02:08:36.427Z,4.69
2023-04-27T02:11:05.270Z,4.69
2023-04-27T02:13:33.743Z,4.69
2023-04-27T02:16:05.343Z,4.71
2023-04-27T02:18:34.004Z,4.75
2023-04-27T02:21:02.454Z,4.79
2023-04-27T02:23:30.832Z,4.82
2023-04-27T02:25:59.123Z,4.83
2023-04-27T02:28:27.722Z,4.81
2023-04-27T02:30:56.896Z,4.79
2023-04-27T02:33:25.476Z,4.77
2023-04-27T02:35:54.060Z,4.72
2023-04-27T02:38:23.787Z,4.66
2023-04-27T02:40:55.323Z,4.58
2023-04-27T02:43:23.815Z,4.54
2023-04-27T02:45:52.617Z,4.52
2023-04-27T02:48:20.860Z,4.48
2023-04-27T02:50:49.447Z,4.42
2023-04-27T02:53:17.837Z,4.39
2023-04-27T02:55:48.443Z,4.39
2023-04-27T02:58:17.805Z,4.35
2023-04-27T03:00:47.598Z,4.33
2023-04-27T03:03:17.519Z,4.28
2023-04-27T03:05:46.711Z,4.21
2023-04-27T03:08:15.186Z,4.12
2023-04-27T03:10:43.766Z,3.97
2023-04-27T03:13:12.434Z,3.89
2023-04-27T03:15:41.025Z,3.83
2023-04-27T03:18:09.640Z,3.78
2023-04-27T03:20:38.182Z,3.73
2023-04-27T03:23:07.280Z,3.65
2023-04-27T03:25:35.856Z,3.61
2023-04-27T03:28:04.653Z,3.56
2023-04-27T03:30:33.056Z,3.61
2023-04-27T03:33:02.358Z,3.57
2023-04-27T03:35:31.347Z,3.56
2023-04-27T03:38:00.008Z,3.55
2023-04-27T03:40:28.397Z,3.57
2023-04-27T03:42:59.040Z,3.62
2023-04-27T03:45:27.925Z,3.61
2023-04-27T03:47:56.755Z,3.61
2023-04-27T03:50:25.798Z,3.60
2023-04-27T03:52:54.433Z,3.60
2023-04-27T03:55:22.960Z,3.64
2023-04-27T03:57:51.741Z,3.65
2023-04-27T04:00:20.532Z,3.72
2023-04-27T04:02:49.093Z,3.81
2023-04-27T04:05:19.181Z,3.98
2023-04-27T04:07:47.717Z,4.10
2023-04-27T04:10:16.808Z,4.22
2023-04-27T04:12:45.612Z,4.34
2023-04-27T04:15:14.592Z,4.48
2023-04-27T04:17:44.231Z,4.59
2023-04-27T04:20:12.812Z,4.70
2023-04-27T04:22:41.151Z,4.77
2023-04-27T04:25:10.359Z,4.86
2023-04-27T04:27:39.275Z,4.96
2023-04-27T04:30:08.555Z,5.01
2023-04-27T04:32:40.731Z,5.06
2023-04-27T04:35:09.294Z,5.08
2023-04-27T04:37:42.067Z,5.09
2023-04-27T04:40:11.219Z,5.13
2023-04-27T04:42:40.491Z,5.18
2023-04-27T04:45:10.750Z,5.23
2023-04-27T04:47:39.851Z,5.26
2023-04-27T04:50:10.461Z,5.38
2023-04-27T04:52:39.834Z,5.47
2023-04-27T04:55:10.028Z,5.56
2023-04-27T04:57:38.431Z,5.62
2023-04-27T05:00:17.257Z,5.66
2023-04-27T05:02:46.412Z,5.73
2023-04-27T05:05:15.046Z,5.82
2023-04-27T05:07:44.747Z,5.86
2023-04-27T05:10:13.445Z,5.90
2023-04-27T05:12:42.124Z,5.97
2023-04-27T05:15:11.283Z,6.02
2023-04-27T05:17:40.282Z,6.08
2023-04-27T05:20:10.094Z,6.13
2023-04-27T05:22:38.491Z,6.22
2023-04-27T05:25:07.786Z,6.28
2023-04-27T05:27:36.274Z,6.28
2023-04-27T05:30:05.311Z,6.34
2023-04-27T05:32:34.134Z,6.37
2023-04-27T05:35:02.541Z,6.42
2023-04-27T05:37:31.128Z,6.46
2023-04-27T05:39:59.705Z,6.51
2023-04-27T05:42:28.289Z,6.61
2023-04-27T05:44:56.762Z,6.63
2023-04-27T05:47:25.789Z,6.68
2023-04-27T05:49:54.780Z,6.71
2023-04-27T05:52:29.785Z,6.71
2023-04-27T05:54:58.978Z,6.74
2023-04-27T05:57:28.018Z,6.80
2023-04-27T05:59:56.568Z,6.81
2023-04-27T06:02:25.502Z,6.83
2023-04-27T06:04:54.205Z,6.91
2023-04-27T06:07:22.865Z,6.97
2023-04-27T06:09:51.721Z,6.97
2023-04-27T06:12:20.714Z,6.98
2023-04-27T06:14:49.708Z,7.00
2023-04-27T06:17:18.278Z,6.99
2023-04-27T06:19:47.067Z,7.08
2023-04-27T06:22:15.777Z,7.15
2023-04-27T06:24:44.348Z,7.16
2023-04-27T06:27:13.550Z,7.15
2023-04-27T06:29:41.975Z,7.25
2023-04-27T06:32:10.653Z,7.34
2023-04-27T06:34:39.634Z,7.40
2023-04-27T06:37:09.120Z,7.49
2023-04-27T06:39:37.788Z,7.55
2023-04-27T06:42:06.783Z,7.58
2023-04-27T06:44:35.151Z,7.62
2023-04-27T06:47:03.845Z,7.59
2023-04-27T06:49:32.537Z,7.64
2023-04-27T06:52:03.287Z,7.69
2023-04-27T06:54:32.055Z,7.74
2023-04-27T06:57:00.878Z,7.81
2023-04-27T06:59:29.436Z,7.82
2023-04-27T07:01:58.070Z,7.85
2023-04-27T07:04:27.710Z,7.89
2023-04-27T07:06:57.130Z,7.96
2023-04-27T07:09:27.735Z,8.05
2023-04-27T07:11:58.579Z,8.09
2023-04-27T07:14:27.589Z,8.12
2023-04-27T07:16:56.677Z,8.22
2023-04-27T07:19:24.969Z,8.29
2023-04-27T07:21:53.848Z,8.35
2023-04-27T07:24:22.688Z,8.44
2023-04-27T07:26:51.634Z,8.46
2023-04-27T07:29:26.930Z,8.42
2023-04-27T07:31:56.312Z,8.45
2023-04-27T07:34:25.249Z,8.49
2023-04-27T07:36:57.298Z,8.56
2023-04-27T07:39:27.032Z,8.62
2023-04-27T07:41:55.758Z,8.56
2023-04-27T07:44:24.491Z,8.56
2023-04-27T07:46:55.085Z,8.62
2023-04-27T07:49:25.267Z,8.67
2023-04-27T07:51:54.043Z,8.79
2023-04-27T07:54:23.134Z,8.81
2023-04-27T07:56:52.044Z,8.85
2023-04-27T07:59:20.623Z,8.93
2023-04-27T08:01:49.435Z,8.98
2023-04-27T08:04:18.515Z,8.96
2023-04-27T08:06:47.924Z,8.93
2023-04-27T08:09:17.608Z,8.81
2023-04-27T08:11:46.402Z,8.71
2023-04-27T08:14:15.292Z,8.66
2023-04-27T08:16:44.815Z,8.65
2023-04-27T08:19:13.504Z,8.66
2023-04-27T08:21:42.537Z,8.66
2023-04-27T08:24:11.260Z,8.64
2023-04-27T08:26:57.351Z,8.65
2023-04-27T08:29:28.530Z,8.66
2023-04-27T08:32:00.222Z,8.69
2023-04-27T08:34:30.164Z,8.69
2023-04-27T08:36:58.767Z,8.68
2023-04-27T08:39:28.457Z,8.64
2023-04-27T08:41:57.174Z,8.73
2023-04-27T08:44:25.845Z,8.80
2023-04-27T08:46:54.829Z,8.85
2023-04-27T08:49:23.825Z,8.86
2023-04-27T08:51:52.944Z,8.95
2023-04-27T08:54:22.228Z,9.03
2023-04-27T08:56:51.616Z,9.15
2023-04-27T08:59:20.319Z,9.23
2023-04-27T09:01:50.083Z,9.31
2023-04-27T09:04:20.475Z,9.39
2023-04-27T09:06:50.065Z,9.40
2023-04-27T09:09:25.693Z,9.50
2023-04-27T09:11:54.302Z,9.54
2023-04-27T09:14:24.966Z,9.58
2023-04-27T09:16:59.742Z,9.65
2023-04-27T09:19:30.342Z,9.69
2023-04-27T09:22:09.528Z,9.68
2023-04-27T09:24:39.135Z,9.72
2023-04-27T09:27:10.400Z,9.73
2023-04-27T09:29:40.376Z,9.72
2023-04-27T09:32:17.129Z,9.80
2023-04-27T09:34:57.144Z,9.76
2023-04-27T09:37:31.541Z,9.81
2023-04-27T09:40:03.132Z,9.85
2023-04-27T09:42:32.372Z,9.75
2023-04-27T09:45:01.879Z,9.68
2023-04-27T09:47:31.921Z,9.69
2023-04-27T09:50:04.679Z,9.72
2023-04-27T09:52:33.765Z,9.58
2023-04-27T09:55:03.757Z,9.50
2023-04-27T09:57:54.310Z,9.49
2023-04-27T10:00:41.505Z,9.45
2023-04-27T10:03:25.485Z,9.49
2023-04-27T10:06:32.674Z,9.52
2023-04-27T10:09:15.818Z,9.60
2023-04-27T10:11:45.718Z,9.59
2023-04-27T10:14:20.417Z,9.63
2023-04-27T10:16:55.600Z,9.71
2023-04-27T10:19:27.191Z,9.73
2023-04-27T10:22:08.485Z,9.86
2023-04-27T10:24:43.023Z,9.95
2023-04-27T10:27:16.296Z,10.00
2023-04-27T10:29:47.096Z,9.87
2023-04-27T10:32:26.702Z,9.76
2023-04-27T10:35:09.052Z,9.66
2023-04-27T10:37:42.585Z,9.71
2023-04-27T10:40:17.496Z,9.72
2023-04-27T10:42:49.705Z,9.75
2023-04-27T10:45:31.530Z,9.89
2023-04-27T10:48:01.877Z,9.89
2023-04-27T10:50:31.730Z,9.92
2023-04-27T10:53:02.948Z,9.96
2023-04-27T10:55:32.302Z,10.04
2023-04-27T10:58:02.290Z,10.17
2023-04-27T11:00:34.136Z,10.28
2023-04-27T11:03:20.001Z,10.37
2023-04-27T11:05:58.983Z,10.42
2023-04-27T11:08:28.473Z,10.41
